Time;durP1;ratioP1;P1;durP2;ratioP2;P2;SDS_P1;SDS_P2;PMS_P1;PMS_P2;Temp;Humidity;BMP_temperature;BMP_pressure;BME280_temperature;BME280_humidity;BME280_pressure;Samples;Min_cycle;Max_cycle;Signal;HPM_P1;HPM_P2
2023/10/28 00:01:36;;;;;;;;;;;;;;;20.58;60.96;99132.19;5024206;28;6317;-69
2023/10/28 00:04:02;;;;;;;;;;;;;;;20.60;60.73;99132.22;5042066;28;2292;-70
2023/10/28 00:06:29;;;;;;;;;;;;;;;20.59;60.90;99130.75;5039376;28;2505;-69
2023/10/28 00:08:55;;;;;;;;;;;;;;;20.59;60.74;99130.75;5041209;28;2365;-69
2023/10/28 00:11:22;;;;;;;;;;;;;;;20.58;60.63;99135.06;5042854;28;2262;-69
2023/10/28 00:13:49;;;;;;;;;;;;;;;20.58;60.65;99130.03;5043049;28;2211;-69
2023/10/28 00:16:16;;;;;;;;;;;;;;;20.59;60.76;99139.38;5039655;28;2288;-70
2023/10/28 00:18:42;;;;;;;;;;;;;;;20.58;60.60;99135.06;5042549;28;2349;-69
2023/10/28 00:21:11;;;;;;;;;;;;;;;20.57;60.86;99127.81;5041150;28;2308;-69
2023/10/28 00:23:38;;;;;;;;;;;;;;;20.56;60.98;99132.09;5040314;28;2401;-69
2023/10/28 00:26:04;;;;;;;;;;;;;;;20.56;60.75;99137.84;5041667;28;2301;-69
2023/10/28 00:28:32;;;;;;;;;;;;;;;20.55;60.64;99131.38;5040773;28;2262;-69
2023/10/28 00:31:01;;;;;;;;;;;;;;;20.56;60.61;99126.34;5040755;28;6485;-71
2023/10/28 00:33:27;;;;;;;;;;;;;;;20.54;60.65;99129.19;5041442;28;2286;-70
2023/10/28 00:35:54;;;;;;;;;;;;;;;20.55;60.51;99134.25;5040925;28;2461;-69
2023/10/28 00:38:22;;;;;;;;;;;;;;;20.53;60.72;99133.50;5042656;28;2438;-70
2023/10/28 00:40:48;;;;;;;;;;;;;;;20.53;60.69;99133.50;5027596;28;2431;-70
2023/10/28 00:43:15;;;;;;;;;;;;;;;20.53;60.77;99139.97;5041559;28;2301;-70
2023/10/28 00:45:41;;;;;;;;;;;;;;;20.50;60.83;99135.59;5041390;28;2345;-70
2023/10/28 00:48:07;;;;;;;;;;;;;;;20.51;60.75;99137.78;5040958;28;2290;-70
2023/10/28 00:50:34;;;;;;;;;;;;;;;20.50;60.59;99141.34;5040884;28;2357;-70
2023/10/28 00:53:02;;;;;;;;;;;;;;;20.50;61.00;99136.34;5041525;28;2528;-70
2023/10/28 00:55:30;;;;;;;;;;;;;;;20.51;60.81;99137.78;5039723;28;2401;-70
2023/10/28 00:57:57;;;;;;;;;;;;;;;20.50;60.91;99141.34;5040697;28;2308;-70
2023/10/28 01:00:24;;;;;;;;;;;;;;;20.49;60.83;99139.88;5022644;28;6229;-70
2023/10/28 01:02:52;;;;;;;;;;;;;;;20.48;60.93;99144.91;5039368;28;2296;-70
2023/10/28 01:05:19;;;;;;;;;;;;;;;20.48;60.73;99135.56;5041164;28;2313;-69
2023/10/28 01:07:46;;;;;;;;;;;;;;;20.48;60.66;99139.16;5040997;28;2460;-70
2023/10/28 01:10:23;;;;;;;;;;;;;;;20.48;60.72;99139.16;5041234;28;2375;-70
2023/10/28 01:12:49;;;;;;;;;;;;;;;20.48;60.81;99126.94;5022268;28;2637;-69
2023/10/28 01:15:16;;;;;;;;;;;;;;;20.48;60.88;99135.56;5023260;28;2244;-70
2023/10/28 01:17:42;;;;;;;;;;;;;;;20.46;60.75;99130.50;5040307;28;2421;-69
2023/10/28 01:20:10;;;;;;;;;;;;;;;20.46;60.97;99130.50;5041343;28;2226;-70
2023/10/28 01:22:37;;;;;;;;;;;;;;;20.47;60.72;99131.94;5039548;28;2302;-69
2023/10/28 01:25:03;;;;;;;;;;;;;;;20.45;60.72;99131.91;5022326;28;2466;-69
2023/10/28 01:27:30;;;;;;;;;;;;;;;20.45;60.69;99134.06;5020720;28;2475;-70
2023/10/28 01:29:58;;;;;;;;;;;;;;;20.44;60.82;99126.88;5033260;28;2302;-70
2023/10/28 01:32:24;;;;;;;;;;;;;;;20.44;60.65;99127.59;5018964;28;6123;-69
2023/10/28 01:34:51;;;;;;;;;;;;;;;20.45;60.61;99134.06;5024046;28;2382;-69
2023/10/28 01:37:18;;;;;;;;;;;;;;;20.43;60.62;99131.91;5023500;28;2334;-70
2023/10/28 01:39:47;;;;;;;;;;;;;;;20.43;60.60;99134.78;5023318;28;2372;-69
2023/10/28 01:42:16;;;;;;;;;;;;;;;20.44;60.91;99127.59;5038459;28;2441;-69
2023/10/28 01:44:43;;;;;;;;;;;;;;;20.43;60.59;99129.03;5023574;28;2274;-69
2023/10/28 01:47:09;;;;;;;;;;;;;;;20.42;61.07;99130.41;5038414;28;2325;-69
2023/10/28 01:49:36;;;;;;;;;;;;;;;20.41;60.92;99131.84;5039634;28;2385;-69
2023/10/28 01:52:03;;;;;;;;;;;;;;;20.41;60.76;99140.47;5038536;28;2401;-69
2023/10/28 01:54:30;;;;;;;;;;;;;;;20.42;60.94;99135.44;5041014;28;2262;-69
2023/10/28 01:56:57;;;;;;;;;;;;;;;20.41;60.83;99136.84;5021800;28;2456;-69
2023/10/28 01:59:27;;;;;;;;;;;;;;;20.41;60.98;99140.47;5022641;28;2777;-70
2023/10/28 02:01:53;;;;;;;;;;;;;;;20.42;60.89;99135.44;5039721;28;6323;-69
2023/10/28 02:04:21;;;;;;;;;;;;;;;20.41;60.92;99140.47;5039348;28;2323;-69
2023/10/28 02:06:50;;;;;;;;;;;;;;;20.40;60.95;99133.25;5022730;28;2276;-70
2023/10/28 02:09:17;;;;;;;;;;;;;;;20.39;60.67;99137.56;5023622;28;2430;-70
2023/10/28 02:11:44;;;;;;;;;;;;;;;20.39;60.70;99131.81;5038893;28;2286;-70
2023/10/28 02:14:11;;;;;;;;;;;;;;;20.40;60.87;99139.00;5039916;28;2305;-70
2023/10/28 02:16:38;;;;;;;;;;;;;;;20.40;60.91;99139.00;5039114;28;2250;-70
2023/10/28 02:19:05;;;;;;;;;;;;;;;20.38;60.81;99136.09;5022309;28;2320;-70
2023/10/28 02:21:32;;;;;;;;;;;;;;;20.38;61.02;99141.84;5025739;28;2252;-70
2023/10/28 02:23:59;;;;;;;;;;;;;;;20.38;60.96;99141.13;5026736;28;2285;-70
2023/10/28 02:26:25;;;;;;;;;;;;;;;20.38;60.72;99135.38;5043205;28;2294;-70
2023/10/28 02:28:52;;;;;;;;;;;;;;;20.38;60.99;99133.22;5042981;28;2296;-70
2023/10/28 02:31:19;;;;;;;;;;;;;;;20.36;60.84;99127.44;5043391;28;6532;-70
2023/10/28 02:33:45;;;;;;;;;;;;;;;20.36;60.87;99138.94;5043211;28;2279;-70
2023/10/28 02:36:12;;;;;;;;;;;;;;;20.36;60.89;99144.66;5043166;28;2507;-70
2023/10/28 02:38:40;;;;;;;;;;;;;;;20.36;60.76;99136.06;5042279;28;2301;-70
2023/10/28 02:41:06;;;;;;;;;;;;;;;20.34;60.68;99143.91;5025525;28;2855;-69
2023/10/28 02:43:35;;;;;;;;;;;;;;;20.34;61.01;99147.53;5042222;28;2298;-69
2023/10/28 02:46:03;;;;;;;;;;;;;;;20.36;60.90;99141.81;5041947;28;2317;-69
2023/10/28 02:48:29;;;;;;;;;;;;;;;20.35;60.80;99148.97;5041690;28;2707;-69
2023/10/28 02:51:01;;;;;;;;;;;;;;;20.36;60.94;99156.16;5040438;28;2338;-69
2023/10/28 02:53:28;;;;;;;;;;;;;;;20.37;60.98;99151.91;5026610;28;2271;-69
2023/10/28 02:55:54;;;;;;;;;;;;;;;20.38;60.98;99150.47;5044025;28;2235;-69
2023/10/28 02:58:21;;;;;;;;;;;;;;;20.39;60.92;99151.94;5040826;28;2325;-69
2023/10/28 03:00:48;;;;;;;;;;;;;;;20.40;60.96;99150.50;5023979;28;6226;-69
2023/10/28 03:03:14;;;;;;;;;;;;;;;20.41;60.89;99149.09;5026150;28;2303;-69
2023/10/28 03:05:42;;;;;;;;;;;;;;;20.40;60.58;99156.25;5024550;28;2367;-69
2023/10/28 03:08:08;;;;;;;;;;;;;;;20.41;60.76;99151.97;5041857;28;2253;-69
2023/10/28 03:10:35;;;;;;;;;;;;;;;20.42;60.89;99152.69;5025831;28;2204;-69
2023/10/28 03:13:01;;;;;;;;;;;;;;;20.41;60.99;99151.97;5040341;28;2484;-69
2023/10/28 03:15:28;;;;;;;;;;;;;;;20.41;60.95;99151.97;5044027;28;2243;-69
2023/10/28 03:17:54;;;;;;;;;;;;;;;20.40;60.77;99150.50;5041758;28;2425;-69
2023/10/28 03:20:21;;;;;;;;;;;;;;;20.40;60.77;99150.50;5040753;28;2416;-69
2023/10/28 03:22:47;;;;;;;;;;;;;;;20.41;60.87;99157.72;5030985;28;2328;-69
2023/10/28 03:25:14;;;;;;;;;;;;;;;20.41;60.92;99160.59;5024226;28;2571;-71
2023/10/28 03:27:40;;;;;;;;;;;;;;;20.41;61.03;99160.59;5042269;28;2302;-69
2023/10/28 03:30:07;;;;;;;;;;;;;;;20.41;60.95;99163.47;5041695;28;6319;-69
2023/10/28 03:32:33;;;;;;;;;;;;;;;20.42;60.99;99170.66;5038792;28;2290;-69
2023/10/28 03:35:00;;;;;;;;;;;;;;;20.43;60.94;99172.13;5042523;28;2223;-69
2023/10/28 03:37:26;;;;;;;;;;;;;;;20.44;60.92;99179.34;5040456;28;2322;-69
2023/10/28 03:39:53;;;;;;;;;;;;;;;20.44;60.98;99185.09;5025140;28;2371;-69
2023/10/28 03:42:19;;;;;;;;;;;;;;;20.44;60.89;99190.84;5041123;28;2500;-69
2023/10/28 03:44:46;;;;;;;;;;;;;;;20.45;60.96;99175.03;5043778;28;2285;-69
2023/10/28 03:47:13;;;;;;;;;;;;;;;20.45;61.05;99183.66;5040693;28;2427;-69
2023/10/28 03:49:39;;;;;;;;;;;;;;;20.45;60.69;99192.28;5042509;28;2274;-69
2023/10/28 03:52:06;;;;;;;;;;;;;;;20.45;60.80;99192.28;5041752;28;2287;-69
2023/10/28 03:54:33;;;;;;;;;;;;;;;20.44;60.74;99190.84;5041073;28;2294;-69
2023/10/28 03:56:59;;;;;;;;;;;;;;;20.44;60.86;99187.25;5040612;28;2279;-69
2023/10/28 03:59:25;;;;;;;;;;;;;;;20.43;60.92;99192.25;5041106;28;2250;-69
2023/10/28 04:01:52;;;;;;;;;;;;;;;20.44;60.84;99196.59;5040602;28;6317;-69
2023/10/28 04:04:19;;;;;;;;;;;;;;;20.43;61.12;99192.25;5041293;28;2322;-69
2023/10/28 04:06:45;;;;;;;;;;;;;;;20.45;61.12;99191.56;5042613;28;2480;-69
2023/10/28 04:09:14;;;;;;;;;;;;;;;20.43;61.02;99200.88;5043202;28;2322;-69
2023/10/28 04:11:40;;;;;;;;;;;;;;;20.44;60.72;99196.59;5041108;28;2377;-69
2023/10/28 04:14:07;;;;;;;;;;;;;;;20.45;61.02;99198.03;5041893;28;2348;-69
2023/10/28 04:16:34;;;;;;;;;;;;;;;20.45;61.06;99203.78;5042288;28;2328;-69
2023/10/28 04:19:00;;;;;;;;;;;;;;;20.47;60.86;99206.69;5039684;28;2318;-69
2023/10/28 04:21:27;;;;;;;;;;;;;;;20.47;60.96;99212.44;5039666;28;2714;-69
2023/10/28 04:23:54;;;;;;;;;;;;;;;20.47;61.06;99205.97;5040200;28;2318;-69
2023/10/28 04:26:20;;;;;;;;;;;;;;;20.48;60.87;99213.19;5041506;28;2268;-70
2023/10/28 04:28:46;;;;;;;;;;;;;;;20.47;60.74;99217.47;5025646;28;2323;-69
2023/10/28 04:31:15;;;;;;;;;;;;;;;20.46;61.11;99222.50;5040057;28;6111;-69
2023/10/28 04:33:41;;;;;;;;;;;;;;;20.47;60.86;99229.69;5020888;28;2299;-69
2023/10/28 04:36:09;;;;;;;;;;;;;;;20.47;60.73;99235.44;5018498;28;2430;-69
2023/10/28 04:38:39;;;;;;;;;;;;;;;20.47;61.01;99231.84;5020737;28;2339;-69
2023/10/28 04:41:05;;;;;;;;;;;;;;;20.46;60.84;99228.25;5015216;28;2307;-69
2023/10/28 04:43:31;;;;;;;;;;;;;;;20.46;60.86;99236.88;5020490;28;2404;-69
2023/10/28 04:45:58;;;;;;;;;;;;;;;20.47;60.97;99231.84;5021066;28;2267;-69
2023/10/28 04:48:27;;;;;;;;;;;;;;;20.46;61.23;99228.25;5020792;28;2276;-70
2023/10/28 04:50:53;;;;;;;;;;;;;;;20.46;61.14;99228.25;5019471;28;2455;-69
2023/10/28 04:53:20;;;;;;;;;;;;;;;20.45;60.88;99232.53;5018075;28;2334;-70
2023/10/28 04:55:46;;;;;;;;;;;;;;;20.47;60.91;99229.69;5019834;28;2331;-70
2023/10/28 04:58:14;;;;;;;;;;;;;;;20.47;61.08;99235.44;5022313;28;2358;-70
2023/10/28 05:00:41;;;;;;;;;;;;;;;20.49;61.03;99244.13;5016029;28;6281;-70
2023/10/28 05:03:07;;;;;;;;;;;;;;;20.51;60.91;99247.03;5019748;28;2297;-69
2023/10/28 05:05:34;;;;;;;;;;;;;;;20.50;61.06;99250.59;5021066;28;2256;-69
2023/10/28 05:08:00;;;;;;;;;;;;;;;20.50;60.87;99253.47;5019265;28;2341;-69
2023/10/28 05:10:27;;;;;;;;;;;;;;;20.50;60.96;99245.59;5019168;28;2346;-69
2023/10/28 05:12:57;;;;;;;;;;;;;;;20.51;60.96;99246.31;5021572;28;2302;-71
2023/10/28 05:15:23;;;;;;;;;;;;;;;20.49;60.97;99244.13;5020117;28;2361;-82
2023/10/28 05:17:50;;;;;;;;;;;;;;;20.49;60.89;99255.63;5021207;28;2459;-69
2023/10/28 05:20:17;;;;;;;;;;;;;;;20.49;60.95;99261.38;5018773;28;2268;-69
2023/10/28 05:22:43;;;;;;;;;;;;;;;20.49;60.86;99249.88;5021006;28;2398;-69
2023/10/28 05:25:09;;;;;;;;;;;;;;;20.49;60.98;99254.91;5019616;28;2430;-69
2023/10/28 05:27:36;;;;;;;;;;;;;;;20.48;61.10;99259.91;5019521;28;2368;-69
2023/10/28 05:30:02;;;;;;;;;;;;;;;20.48;61.14;99253.44;5019262;28;2362;-69
2023/10/28 05:32:32;;;;;;;;;;;;;;;20.47;61.39;99251.97;5031175;28;7195;-69
2023/10/28 05:34:58;;;;;;;;;;;;;;;20.47;61.02;99252.69;5041786;28;2314;-69
2023/10/28 05:37:26;;;;;;;;;;;;;;;20.47;61.25;99251.97;5040448;28;2282;-69
2023/10/28 05:39:52;;;;;;;;;;;;;;;20.49;61.33;99267.13;5039577;28;2283;-69
2023/10/28 05:42:19;;;;;;;;;;;;;;;20.50;61.08;99262.84;5039140;28;2349;-69
2023/10/28 05:44:45;;;;;;;;;;;;;;;20.51;61.25;99266.44;5040619;28;2326;-70
2023/10/28 05:47:12;;;;;;;;;;;;;;;20.53;61.09;99283.72;5041350;28;2278;-69
2023/10/28 05:49:38;;;;;;;;;;;;;;;20.53;61.09;99280.84;5038396;28;2362;-69
2023/10/28 05:52:04;;;;;;;;;;;;;;;20.54;61.08;99284.47;5039091;28;2313;-69
2023/10/28 05:54:31;;;;;;;;;;;;;;;20.53;61.16;99291.63;5042512;28;2281;-70
2023/10/28 05:56:57;;;;;;;;;;;;;;;20.53;60.86;99295.25;5040913;28;2350;-69
2023/10/28 05:59:24;;;;;;;;;;;;;;;20.51;61.18;99298.78;5041886;28;2492;-69
2023/10/28 06:01:51;;;;;;;;;;;;;;;20.53;61.19;99295.25;5043152;28;7359;-69
2023/10/28 06:04:21;;;;;;;;;;;;;;;20.52;61.20;99299.50;5026164;28;2477;-69
2023/10/28 06:06:48;;;;;;;;;;;;;;;20.51;61.21;99298.06;5042233;28;2386;-69
2023/10/28 06:09:15;;;;;;;;;;;;;;;20.50;61.37;99303.09;5043445;28;2403;-69
2023/10/28 06:11:41;;;;;;;;;;;;;;;20.50;61.07;99320.34;5042993;28;2295;-70
2023/10/28 06:14:08;;;;;;;;;;;;;;;20.49;61.27;99318.88;5043839;28;2524;-69
2023/10/28 06:16:35;;;;;;;;;;;;;;;20.48;61.23;99328.94;5042502;28;2349;-70
2023/10/28 06:19:02;;;;;;;;;;;;;;;20.48;61.40;99334.69;5042844;28;2289;-70
2023/10/28 06:21:28;;;;;;;;;;;;;;;20.50;61.12;99340.47;5043736;28;2287;-69
2023/10/28 06:23:55;;;;;;;;;;;;;;;20.50;61.41;99337.59;5044386;28;2356;-70
2023/10/28 06:26:21;;;;;;;;;;;;;;;20.51;61.27;99344.06;5040608;28;2457;-70
2023/10/28 06:28:47;;;;;;;;;;;;;;;20.48;61.22;99340.44;5042585;28;2380;-70
2023/10/28 06:31:15;;;;;;;;;;;;;;;20.48;61.39;99343.31;5043235;28;6190;-70
2023/10/28 06:33:41;;;;;;;;;;;;;;;20.47;61.17;99350.44;5027210;28;2321;-70
2023/10/28 06:36:08;;;;;;;;;;;;;;;20.47;61.14;99356.19;5043754;28;2379;-70
2023/10/28 06:38:35;;;;;;;;;;;;;;;20.47;61.37;99361.94;5042571;28;2262;-70
2023/10/28 06:41:01;;;;;;;;;;;;;;;20.47;61.21;99367.69;5043897;28;2282;-70
2023/10/28 06:43:28;;;;;;;;;;;;;;;20.48;61.21;99369.19;5043317;28;2136;-70
2023/10/28 06:45:54;;;;;;;;;;;;;;;20.48;61.37;99374.22;5041726;28;2090;-70
2023/10/28 06:48:20;;;;;;;;;;;;;;;20.48;61.09;99374.94;5041307;28;2269;-70
2023/10/28 06:50:48;;;;;;;;;;;;;;;20.49;61.09;99370.63;5042783;28;2296;-70
2023/10/28 06:53:14;;;;;;;;;;;;;;;20.51;61.11;99387.19;5024078;28;2094;-70
2023/10/28 06:55:41;;;;;;;;;;;;;;;20.51;61.44;99376.44;5043851;28;2164;-70
2023/10/28 06:58:07;;;;;;;;;;;;;;;20.53;61.38;99387.25;5041286;28;2723;-70
2023/10/28 07:00:33;;;;;;;;;;;;;;;20.54;61.49;99387.97;5040981;28;6387;-70
2023/10/28 07:03:00;;;;;;;;;;;;;;;20.54;61.67;99396.59;5042175;28;2333;-70
2023/10/28 07:05:26;;;;;;;;;;;;;;;20.53;61.57;99403.78;5040952;28;2406;-70
2023/10/28 07:07:56;;;;;;;;;;;;;;;20.53;61.66;99403.78;5043193;28;2235;-70
2023/10/28 07:10:22;;;;;;;;;;;;;;;20.53;61.52;99409.53;5024459;28;2485;-68
2023/10/28 07:12:49;;;;;;;;;;;;;;;20.48;61.51;99409.44;5040293;28;2192;-68
2023/10/28 07:15:16;;;;;;;;;;;;;;;20.43;60.34;99425.13;5037918;28;2530;-68
2023/10/28 07:17:43;;;;;;;;;;;;;;;20.35;61.18;99418.47;5040717;28;2266;-68
2023/10/28 07:20:10;;;;;;;;;;;;;;;20.44;60.97;99420.84;5040873;28;2246;-67
2023/10/28 07:22:36;;;;;;;;;;;;;;;20.49;60.59;99416.63;5043808;28;2163;-68
2023/10/28 07:25:04;;;;;;;;;;;;;;;20.48;61.21;99423.09;5041333;28;2239;-68
2023/10/28 07:27:31;;;;;;;;;;;;;;;20.53;61.49;99426.78;5042439;28;2323;-68
2023/10/28 07:29:59;;;;;;;;;;;;;;;20.46;62.38;99418.00;5041903;28;2321;-68
2023/10/28 07:32:25;;;;;;;;;;;;;;;20.44;63.08;99420.84;5040980;28;6162;-68
2023/10/28 07:34:52;;;;;;;;;;;;;;;20.50;62.85;99428.84;5040377;28;2281;-68
2023/10/28 07:37:18;;;;;;;;;;;;;;;20.53;62.90;99438.28;5039061;28;2270;-69
2023/10/28 07:39:45;;;;;;;;;;;;;;;20.54;62.62;99437.59;5041949;28;2207;-68
2023/10/28 07:42:13;;;;;;;;;;;;;;;20.50;62.70;99441.13;5041703;28;2182;-68
2023/10/28 07:44:40;;;;;;;;;;;;;;;20.01;61.80;99450.69;5040253;28;2156;-70
2023/10/28 07:47:07;;;;;;;;;;;;;;;20.30;61.69;99446.38;5039985;28;2226;-70
2023/10/28 07:49:34;;;;;;;;;;;;;;;20.37;61.51;99447.97;5040265;28;2160;-69
2023/10/28 07:52:00;;;;;;;;;;;;;;;20.38;61.85;99445.84;5024104;28;2176;-72
2023/10/28 07:54:27;;;;;;;;;;;;;;;20.37;61.35;99450.84;5040521;28;2112;-69
2023/10/28 07:56:53;;;;;;;;;;;;;;;20.44;61.64;99455.34;5039695;28;2389;-70
2023/10/28 07:59:20;;;;;;;;;;;;;;;20.57;60.92;99455.63;5041737;28;2136;-71
2023/10/28 08:01:47;;;;;;;;;;;;;;;20.58;60.80;99465.75;5038361;28;6061;-71
2023/10/28 08:04:14;;;;;;;;;;;;;;;20.55;61.49;99462.06;5041235;28;2197;-72
2023/10/28 08:06:41;;;;;;;;;;;;;;;20.55;61.41;99464.94;5041677;28;2156;-71
2023/10/28 08:09:08;;;;;;;;;;;;;;;20.55;61.21;99470.69;5039001;28;2388;-71
2023/10/28 08:11:35;;;;;;;;;;;;;;;20.56;60.68;99465.66;5021880;28;2263;-71
2023/10/28 08:14:03;;;;;;;;;;;;;;;20.56;60.56;99465.66;5025296;28;2114;-72
2023/10/28 08:16:30;;;;;;;;;;;;;;;20.54;60.77;99468.50;5041018;28;2209;-72
2023/10/28 08:18:58;;;;;;;;;;;;;;;20.52;60.54;99472.03;5042110;28;2141;-71
2023/10/28 08:21:25;;;;;;;;;;;;;;;20.54;60.28;99474.25;5042555;28;1910;-72
2023/10/28 08:23:51;;;;;;;;;;;;;;;20.54;60.24;99477.13;5043478;28;2148;-72
2023/10/28 08:26:18;;;;;;;;;;;;;;;20.56;60.31;99488.66;5043472;28;1788;-72
2023/10/28 08:28:50;;;;;;;;;;;;;;;20.55;60.31;99487.19;5043132;28;1618;-72
2023/10/28 08:31:17;;;;;;;;;;;;;;;20.54;60.00;99494.38;5042905;28;6165;-72
2023/10/28 08:33:43;;;;;;;;;;;;;;;20.51;60.08;99497.19;5042266;28;2062;-72
2023/10/28 08:36:10;;;;;;;;;;;;;;;20.52;60.30;99500.78;5024981;28;2139;-72
2023/10/28 08:38:39;;;;;;;;;;;;;;;20.53;59.83;99508.03;5039401;28;2087;-72
2023/10/28 08:41:05;;;;;;;;;;;;;;;20.53;60.00;99513.06;5042184;28;2293;-72
2023/10/28 08:43:33;;;;;;;;;;;;;;;20.55;60.11;99521.69;5040836;28;2126;-71
2023/10/28 08:46:01;;;;;;;;;;;;;;;20.57;60.29;99519.66;5041222;28;2281;-72
2023/10/28 08:48:27;;;;;;;;;;;;;;;20.55;60.17;99522.44;5018746;28;2031;-71
2023/10/28 08:50:54;;;;;;;;;;;;;;;20.54;60.27;99526.72;5039767;28;2247;-73
2023/10/28 08:53:21;;;;;;;;;;;;;;;19.87;59.49;99522.88;5040475;28;2193;-71
2023/10/28 08:55:49;;;;;;;;;;;;;;;19.54;59.33;99538.41;5020888;28;2164;-72
2023/10/28 08:58:16;;;;;;;;;;;;;;;19.48;58.89;99536.13;5017659;28;2308;-71
2023/10/28 09:00:43;;;;;;;;;;;;;;;19.49;58.48;99531.84;5021408;28;6220;-71
2023/10/28 09:03:10;;;;;;;;;;;;;;;19.35;58.45;99535.03;5040691;28;2230;-71
2023/10/28 09:05:38;;;;;;;;;;;;;;;19.48;58.53;99536.13;5023106;28;2279;-71
2023/10/28 09:08:05;;;;;;;;;;;;;;;19.58;57.92;99539.28;5041821;28;2218;-75
2023/10/28 09:10:31;;;;;;;;;;;;;;;19.66;57.91;99551.00;5023243;28;2310;-68
2023/10/28 09:12:58;;;;;;;;;;;;;;;19.55;57.44;99545.66;5023735;28;2316;-68
2023/10/28 09:15:25;;;;;;;;;;;;;;;19.47;56.77;99551.91;5022212;28;2338;-68
2023/10/28 09:17:51;;;;;;;;;;;;;;;19.34;57.11;99544.31;5023011;28;2072;-68
2023/10/28 09:20:18;;;;;;;;;;;;;;;19.37;56.52;99554.44;5024631;28;2062;-68
2023/10/28 09:22:44;;;;;;;;;;;;;;;19.41;56.79;99560.31;5041248;28;2268;-68
2023/10/28 09:25:11;;;;;;;;;;;;;;;19.49;56.41;99560.53;5039963;28;2348;-68
2023/10/28 09:27:38;;;;;;;;;;;;;;;19.32;56.19;99564.34;5039554;28;2215;-68
2023/10/28 09:30:06;;;;;;;;;;;;;;;19.62;55.78;99570.97;5040348;28;7257;-67
2023/10/28 09:32:33;;;;;;;;;;;;;;;19.64;56.16;99565.28;5040928;28;2061;-67
2023/10/28 09:35:06;;;;;;;;;;;;;;;19.86;56.40;99564.50;5040441;28;2266;-68
2023/10/28 09:37:34;;;;;;;;;;;;;;;19.96;56.40;99564.78;5022715;28;2366;-67
2023/10/28 09:40:01;;;;;;;;;;;;;;;20.00;56.26;99567.75;5038779;28;2921;-67
2023/10/28 09:42:29;;;;;;;;;;;;;;;20.04;56.46;99565.00;5040639;28;2306;-68
2023/10/28 09:44:56;;;;;;;;;;;;;;;20.07;56.38;99557.88;5038570;28;2384;-67
2023/10/28 09:47:22;;;;;;;;;;;;;;;20.10;56.58;99564.41;5022756;28;2323;-67
2023/10/28 09:49:50;;;;;;;;;;;;;;;20.11;56.70;99559.41;5039345;28;2385;-68
2023/10/28 09:52:17;;;;;;;;;;;;;;;19.49;55.90;99565.56;5040285;28;2551;-68
2023/10/28 09:54:43;;;;;;;;;;;;;;;19.58;56.18;99578.75;5019345;28;2499;-68
2023/10/28 09:57:11;;;;;;;;;;;;;;;19.82;56.41;99568.00;5041062;28;2124;-67
2023/10/28 09:59:38;;;;;;;;;;;;;;;19.95;56.11;99569.06;5039143;28;2073;-67
2023/10/28 10:02:14;;;;;;;;;;;;;;;20.01;56.31;99574.97;5023519;28;6207;-69
2023/10/28 10:04:41;;;;;;;;;;;;;;;20.16;56.83;99569.59;5020728;28;2600;-70
2023/10/28 10:07:09;;;;;;;;;;;;;;;20.04;56.70;99576.50;5037126;28;2141;-72
2023/10/28 10:09:47;;;;;;;;;;;;;;;19.31;55.96;99568.59;5005409;28;2155;-73
2023/10/28 10:12:14;;;;;;;;;;;;;;;18.95;56.50;99571.84;5040068;28;2274;-73
2023/10/28 10:14:45;;;;;;;;;;;;;;;18.63;55.83;99572.94;5022374;28;2242;-73
2023/10/28 10:17:14;;;;;;;;;;;;;;;18.59;56.87;99572.09;5038552;28;2400;-74
2023/10/28 10:19:40;;;;;;;;;;;;;;;18.77;56.60;99572.72;5037512;28;2303;-72
2023/10/28 10:22:07;;;;;;;;;;;;;;;18.95;56.07;99568.97;5035693;28;2370;-72
2023/10/28 10:24:33;;;;;;;;;;;;;;;19.08;55.64;99570.81;5035871;28;2270;-68
2023/10/28 10:27:00;;;;;;;;;;;;;;;19.29;55.41;99565.69;5040544;28;2319;-68
2023/10/28 10:29:27;;;;;;;;;;;;;;;19.54;55.27;99565.00;5040755;28;2291;-68
2023/10/28 10:31:53;;;;;;;;;;;;;;;19.70;55.24;99566.91;5039569;28;6763;-68
2023/10/28 10:34:43;;;;;;;;;;;;;;;19.78;55.34;99565.00;5022981;28;1698;-68
2023/10/28 10:37:20;;;;;;;;;;;;;;;19.87;55.72;99568.81;5040037;28;1777;-68
2023/10/28 10:39:46;;;;;;;;;;;;;;;19.93;55.66;99574.00;5041943;28;2251;-68
2023/10/28 10:42:13;;;;;;;;;;;;;;;19.96;55.55;99564.03;5043905;28;2372;-68
2023/10/28 10:44:40;;;;;;;;;;;;;;;20.00;55.78;99564.88;5045480;28;1666;-68
2023/10/28 10:47:10;;;;;;;;;;;;;;;20.02;55.98;99572.81;5044159;28;1590;-68
2023/10/28 10:49:38;;;;;;;;;;;;;;;20.04;56.22;99576.50;5044264;28;1802;-68
2023/10/28 10:52:05;;;;;;;;;;;;;;;20.07;56.23;99580.16;5043467;28;2382;-68
2023/10/28 10:54:35;;;;;;;;;;;;;;;20.08;56.55;99582.34;5044363;28;1629;-68
2023/10/28 10:57:02;;;;;;;;;;;;;;;20.09;56.45;99580.94;5044764;28;1680;-68
2023/10/28 10:59:28;;;;;;;;;;;;;;;20.12;56.90;99586.75;5044264;28;1780;-68
2023/10/28 11:01:56;;;;;;;;;;;;;;;20.11;56.98;99586.00;5043786;28;6263;-68
2023/10/28 11:04:23;;;;;;;;;;;;;;;20.11;57.03;99574.50;5042823;28;1605;-68
2023/10/28 11:06:51;;;;;;;;;;;;;;;20.13;57.00;99588.19;5044615;28;1777;-68
2023/10/28 11:09:18;;;;;;;;;;;;;;;20.12;57.30;99587.47;5043244;28;2261;-68
2023/10/28 11:11:44;;;;;;;;;;;;;;;20.14;57.15;99595.44;5043889;28;1623;-69
2023/10/28 11:14:12;;;;;;;;;;;;;;;20.14;57.54;99589.69;5043998;28;2213;-68
2023/10/28 11:16:41;;;;;;;;;;;;;;;20.13;57.54;99588.91;5044129;28;1801;-74
2023/10/28 11:19:08;;;;;;;;;;;;;;;20.14;57.62;99593.28;5026418;28;2321;-71
2023/10/28 11:21:35;;;;;;;;;;;;;;;20.14;57.62;99589.69;5043342;28;2313;-73
2023/10/28 11:24:01;;;;;;;;;;;;;;;20.14;57.79;99598.31;5023730;28;2362;-74
2023/10/28 11:26:27;;;;;;;;;;;;;;;20.15;57.95;99596.88;5043490;28;1570;-73
2023/10/28 11:29:00;;;;;;;;;;;;;;;20.15;57.89;99591.13;5043418;28;1793;-74
2023/10/28 11:31:28;;;;;;;;;;;;;;;20.16;57.97;99592.56;5043974;28;6093;-73
2023/10/28 11:33:55;;;;;;;;;;;;;;;20.16;57.97;99586.84;5042890;28;2266;-74
2023/10/28 11:36:22;;;;;;;;;;;;;;;20.16;58.21;99587.59;5042541;28;2277;-74
2023/10/28 11:38:48;;;;;;;;;;;;;;;20.16;58.06;99592.56;5044074;28;1674;-74
2023/10/28 11:41:15;;;;;;;;;;;;;;;20.16;58.33;99589.72;5042402;28;2206;-74
2023/10/28 11:43:41;;;;;;;;;;;;;;;20.17;58.38;99594.78;5042817;28;1922;-73
2023/10/28 11:46:08;;;;;;;;;;;;;;;20.18;58.34;99595.50;5043463;28;1820;-73
2023/10/28 11:48:35;;;;;;;;;;;;;;;20.17;58.57;99597.66;5026833;28;1583;-73
2023/10/28 11:51:01;;;;;;;;;;;;;;;20.17;58.62;99594.06;5026078;28;1879;-73
2023/10/28 11:53:28;;;;;;;;;;;;;;;20.19;58.44;99591.25;5043342;28;2303;-74
2023/10/28 11:55:55;;;;;;;;;;;;;;;20.20;58.80;99598.44;5043614;28;1619;-73
2023/10/28 11:58:24;;;;;;;;;;;;;;;20.19;58.67;99597.72;5027532;28;1781;-73
2023/10/28 12:00:53;;;;;;;;;;;;;;;20.20;58.87;99589.81;5041050;28;6250;-74
2023/10/28 12:03:19;;;;;;;;;;;;;;;20.20;58.96;99599.19;5042409;28;2321;-74
2023/10/28 12:05:46;;;;;;;;;;;;;;;20.20;58.92;99592.69;5044462;28;1824;-73
2023/10/28 12:08:12;;;;;;;;;;;;;;;20.20;58.80;99598.44;5042631;28;1630;-73
2023/10/28 12:10:43;;;;;;;;;;;;;;;20.20;58.88;99584.81;5042865;28;1789;-73
2023/10/28 12:13:10;;;;;;;;;;;;;;;20.22;58.96;99595.63;5040957;28;2293;-74
2023/10/28 12:15:36;;;;;;;;;;;;;;;20.20;58.81;99593.44;5043237;28;1641;-74
2023/10/28 12:18:03;;;;;;;;;;;;;;;20.21;59.25;99591.31;5041739;28;2293;-73
2023/10/28 12:20:30;;;;;;;;;;;;;;;20.22;58.97;99595.63;5042804;28;1722;-73
2023/10/28 12:22:59;;;;;;;;;;;;;;;20.21;59.13;99594.91;5042849;28;1918;-74
2023/10/28 12:25:26;;;;;;;;;;;;;;;20.22;59.35;99587.00;5040387;28;2274;-73
2023/10/28 12:27:52;;;;;;;;;;;;;;;20.21;59.21;99580.53;5042459;28;2321;-74
2023/10/28 12:30:21;;;;;;;;;;;;;;;20.21;59.16;99588.44;5041356;28;6337;-73
2023/10/28 12:32:48;;;;;;;;;;;;;;;20.21;59.18;99585.56;5042563;28;2012;-73
2023/10/28 12:35:14;;;;;;;;;;;;;;;20.20;59.15;99590.56;5040484;28;2349;-74
2023/10/28 12:37:41;;;;;;;;;;;;;;;20.21;59.21;99574.78;5042760;28;1649;-73
2023/10/28 12:40:08;;;;;;;;;;;;;;;20.20;59.16;99573.34;5042569;28;1583;-74
2023/10/28 12:42:36;;;;;;;;;;;;;;;20.20;59.40;99581.94;5042093;28;1914;-74
2023/10/28 12:45:04;;;;;;;;;;;;;;;20.20;59.27;99573.34;5041034;28;2432;-73
2023/10/28 12:47:30;;;;;;;;;;;;;;;20.20;59.46;99572.56;5042467;28;1880;-74
2023/10/28 12:49:57;;;;;;;;;;;;;;;20.22;59.43;99578.38;5040986;28;2295;-74
2023/10/28 12:52:23;;;;;;;;;;;;;;;20.23;59.39;99588.47;5042554;28;1585;-74
2023/10/28 12:54:50;;;;;;;;;;;;;;;20.22;59.39;99581.25;5042095;28;1824;-74
2023/10/28 12:57:16;;;;;;;;;;;;;;;20.24;59.43;99595.69;5041848;28;1796;-74